WZZ2QC LIMJ-EPKK
Flight info
| Callsign | WZZ2QC |
|---|---|
| Flight time | 1h 36m |
| Altitude | 34000 |
| Route | GEN DCT OSKOR DCT NESTI DCT MALUG/N0457F350 DCT LEDVA DCT NETIR |
| Aircraft | A21N/M-SDE2E3FGHIRWXY/LB1 |
Departure
| Time | 2026-04-23 18:41 |
|---|---|
| Airport | Genoa Cristoforo Colombo Airport (LIMJ) |
Arrival
| Time | 2026-04-23 20:18 |
|---|---|
| Airport | Kraków John Paul II International Airport (EPKK) |
| Time | Latitude | Longitude | Altitude | Speed | Heading |
|---|---|---|---|---|---|
| 2026-04-23 18:07 | 44.41417 | 8.85037 | 26 ft | 0 kts | 14° |
| 2026-04-23 18:09 | 44.41416 | 8.85037 | 26 ft | 0 kts | 14° |
| 2026-04-23 18:33 | 44.41414 | 8.85036 | 26 ft | 1 kts | 14° |
| 2026-04-23 18:33 | 44.41396 | 8.85030 | 27 ft | 3 kts | 15° |
| 2026-04-23 18:33 | 44.41377 | 8.85023 | 29 ft | 3 kts | 15° |
| 2026-04-23 18:34 | 44.41358 | 8.85016 | 30 ft | 3 kts | 18° |
| 2026-04-23 18:34 | 44.41347 | 8.85008 | 30 ft | 3 kts | 76° |
| 2026-04-23 18:34 | 44.41347 | 8.84988 | 30 ft | 1 kts | 102° |
| 2026-04-23 18:34 | 44.41350 | 8.84968 | 30 ft | 3 kts | 102° |
| 2026-04-23 18:35 | 44.41354 | 8.84942 | 29 ft | 3 kts | 102° |
| 2026-04-23 18:35 | 44.41359 | 8.84913 | 29 ft | 3 kts | 102° |
| 2026-04-23 18:35 | 44.41362 | 8.84891 | 28 ft | 1 kts | 102° |
| 2026-04-23 18:35 | 44.41363 | 8.84889 | 28 ft | 1 kts | 102° |
| 2026-04-23 18:38 | 44.41361 | 8.84900 | 29 ft | 3 kts | 102° |
| 2026-04-23 18:38 | 44.41353 | 8.84949 | 28 ft | 7 kts | 102° |
| 2026-04-23 18:38 | 44.41338 | 8.85033 | 25 ft | 11 kts | 104° |
| 2026-04-23 18:39 | 44.41316 | 8.85151 | 25 ft | 14 kts | 105° |
| 2026-04-23 18:39 | 44.41267 | 8.85267 | 25 ft | 15 kts | 150° |
| 2026-04-23 18:39 | 44.41162 | 8.85256 | 25 ft | 16 kts | 195° |
| 2026-04-23 18:39 | 44.41053 | 8.85208 | 23 ft | 17 kts | 218° |
| 2026-04-23 18:40 | 44.41027 | 8.85062 | 25 ft | 18 kts | 287° |
| 2026-04-23 18:40 | 44.41065 | 8.84871 | 24 ft | 32 kts | 285° |
| 2026-04-23 18:40 | 44.41191 | 8.84224 | 27 ft | 104 kts | 284° |
| 2026-04-23 18:40 | 44.41392 | 8.83184 | 28 ft | 158 kts | 284° |
| 2026-04-23 18:41 | 44.41660 | 8.81817 | 519 ft | 162 kts | 285° |
| 2026-04-23 18:41 | 44.41984 | 8.80296 | 1171 ft | 166 kts | 286° |
| 2026-04-23 18:41 | 44.42324 | 8.78748 | 1872 ft | 167 kts | 287° |
| 2026-04-23 18:42 | 44.42619 | 8.77171 | 2388 ft | 174 kts | 276° |
| 2026-04-23 18:42 | 44.42210 | 8.75537 | 2664 ft | 192 kts | 226° |
| 2026-04-23 18:42 | 44.40952 | 8.74866 | 3071 ft | 199 kts | 183° |
| 2026-04-23 18:42 | 44.39586 | 8.74813 | 3727 ft | 198 kts | 180° |
| 2026-04-23 18:43 | 44.38232 | 8.75220 | 4228 ft | 204 kts | 151° |
| 2026-04-23 18:43 | 44.37101 | 8.76344 | 4991 ft | 194 kts | 141° |
| 2026-04-23 18:43 | 44.36037 | 8.77528 | 5575 ft | 199 kts | 137° |
| 2026-04-23 18:43 | 44.34976 | 8.78812 | 6125 ft | 204 kts | 135° |
| 2026-04-23 18:44 | 44.33919 | 8.80176 | 6692 ft | 208 kts | 134° |
| 2026-04-23 18:44 | 44.32844 | 8.81558 | 7256 ft | 212 kts | 134° |
| 2026-04-23 18:44 | 44.32233 | 8.82669 | 7496 ft | 217 kts | 111° |
| 2026-04-23 18:44 | 44.32060 | 8.84777 | 7783 ft | 230 kts | 77° |
| 2026-04-23 18:45 | 44.32716 | 8.86900 | 8029 ft | 250 kts | 57° |
| 2026-04-23 18:45 | 44.33712 | 8.88999 | 8430 ft | 267 kts | 56° |
| 2026-04-23 18:45 | 44.34743 | 8.91157 | 9072 ft | 273 kts | 56° |
| 2026-04-23 18:45 | 44.35802 | 8.93429 | 9844 ft | 277 kts | 57° |
| 2026-04-23 18:46 | 44.36843 | 8.95710 | 10463 ft | 285 kts | 57° |
| 2026-04-23 18:46 | 44.37935 | 8.98126 | 10773 ft | 302 kts | 57° |
| 2026-04-23 18:46 | 44.39081 | 9.00692 | 11037 ft | 321 kts | 58° |
| 2026-04-23 18:46 | 44.40298 | 9.03419 | 11282 ft | 339 kts | 58° |
| 2026-04-23 18:47 | 44.41595 | 9.06212 | 11518 ft | 356 kts | 53° |
| 2026-04-23 18:47 | 44.43348 | 9.08842 | 11759 ft | 373 kts | 40° |
| 2026-04-23 18:47 | 44.45538 | 9.10903 | 12016 ft | 387 kts | 31° |
| 2026-04-23 18:47 | 44.47861 | 9.12785 | 12450 ft | 392 kts | 30° |
| 2026-04-23 18:48 | 44.50233 | 9.14699 | 12960 ft | 395 kts | 30° |
| 2026-04-23 18:48 | 44.52624 | 9.16648 | 13522 ft | 398 kts | 31° |
| 2026-04-23 18:48 | 44.55025 | 9.18624 | 14044 ft | 401 kts | 31° |
| 2026-04-23 18:48 | 44.57431 | 9.20612 | 14505 ft | 403 kts | 31° |
| 2026-04-23 18:49 | 44.59853 | 9.22618 | 15017 ft | 405 kts | 31° |
| 2026-04-23 18:49 | 44.62262 | 9.24618 | 15547 ft | 408 kts | 31° |
| 2026-04-23 18:49 | 44.64721 | 9.26669 | 16081 ft | 411 kts | 31° |
| 2026-04-23 18:49 | 44.67180 | 9.28736 | 16608 ft | 415 kts | 31° |
| 2026-04-23 18:50 | 44.68864 | 9.30143 | 16966 ft | 417 kts | 31° |
| 2026-04-23 18:50 | 44.72172 | 9.32922 | 17685 ft | 420 kts | 31° |
| 2026-04-23 18:50 | 44.74693 | 9.35032 | 18202 ft | 423 kts | 31° |
| 2026-04-23 18:50 | 44.77238 | 9.37151 | 18675 ft | 426 kts | 30° |
| 2026-04-23 18:51 | 44.79809 | 9.39274 | 19086 ft | 429 kts | 30° |
| 2026-04-23 18:51 | 44.82381 | 9.41423 | 19503 ft | 431 kts | 31° |
| 2026-04-23 18:51 | 44.84962 | 9.43588 | 19919 ft | 433 kts | 31° |
| 2026-04-23 18:51 | 44.87560 | 9.45765 | 20328 ft | 436 kts | 31° |
| 2026-04-23 18:52 | 44.90169 | 9.47964 | 20727 ft | 438 kts | 31° |
| 2026-04-23 18:52 | 44.92798 | 9.50185 | 21157 ft | 441 kts | 31° |
| 2026-04-23 18:52 | 44.95440 | 9.52407 | 21648 ft | 443 kts | 31° |
| 2026-04-23 18:52 | 44.98056 | 9.54625 | 22076 ft | 446 kts | 31° |
| 2026-04-23 18:53 | 45.00725 | 9.56886 | 22508 ft | 448 kts | 31° |
| 2026-04-23 18:53 | 45.03414 | 9.59148 | 22919 ft | 450 kts | 30° |
| 2026-04-23 18:53 | 45.06117 | 9.61422 | 23315 ft | 452 kts | 31° |
| 2026-04-23 18:53 | 45.08820 | 9.63704 | 23737 ft | 454 kts | 30° |
| 2026-04-23 18:54 | 45.11550 | 9.65984 | 24094 ft | 455 kts | 30° |
| 2026-04-23 18:54 | 45.14264 | 9.68260 | 24536 ft | 454 kts | 31° |
| 2026-04-23 18:54 | 45.16972 | 9.70547 | 24987 ft | 452 kts | 31° |
| 2026-04-23 18:54 | 45.19669 | 9.72838 | 25451 ft | 450 kts | 31° |
| 2026-04-23 18:55 | 45.22345 | 9.75120 | 25912 ft | 448 kts | 31° |
| 2026-04-23 18:55 | 45.25014 | 9.77387 | 26375 ft | 446 kts | 31° |
| 2026-04-23 18:55 | 45.27670 | 9.79650 | 26836 ft | 444 kts | 31° |
| 2026-04-23 18:55 | 45.30310 | 9.81906 | 27295 ft | 442 kts | 31° |
| 2026-04-23 18:56 | 45.32054 | 9.83396 | 27587 ft | 441 kts | 31° |
| 2026-04-23 18:56 | 45.35568 | 9.86396 | 28170 ft | 439 kts | 32° |
| 2026-04-23 18:56 | 45.38146 | 9.88604 | 28578 ft | 438 kts | 32° |
| 2026-04-23 18:56 | 45.40788 | 9.90871 | 28992 ft | 437 kts | 32° |
| 2026-04-23 18:57 | 45.43351 | 9.93067 | 29390 ft | 435 kts | 32° |
| 2026-04-23 18:57 | 45.45940 | 9.95298 | 29788 ft | 434 kts | 32° |
| 2026-04-23 18:57 | 45.48519 | 9.97542 | 30196 ft | 433 kts | 32° |
| 2026-04-23 18:57 | 45.51085 | 9.99777 | 30510 ft | 431 kts | 32° |
| 2026-04-23 18:58 | 45.53647 | 10.02001 | 30821 ft | 430 kts | 32° |
| 2026-04-23 18:58 | 45.56212 | 10.04211 | 31121 ft | 429 kts | 32° |
| 2026-04-23 18:58 | 45.58766 | 10.06412 | 31427 ft | 429 kts | 32° |
| 2026-04-23 18:58 | 45.61326 | 10.08601 | 31703 ft | 428 kts | 32° |
| 2026-04-23 18:59 | 45.63774 | 10.10913 | 31954 ft | 426 kts | 39° |
| 2026-04-23 18:59 | 45.65924 | 10.13801 | 32213 ft | 424 kts | 49° |
| 2026-04-23 18:59 | 45.67719 | 10.17144 | 32469 ft | 423 kts | 54° |
| 2026-04-23 18:59 | 45.69423 | 10.20581 | 32724 ft | 423 kts | 54° |
| 2026-04-23 19:00 | 45.71116 | 10.24018 | 33049 ft | 422 kts | 54° |
| 2026-04-23 19:00 | 45.72806 | 10.27439 | 33368 ft | 419 kts | 54° |
| 2026-04-23 19:00 | 45.74484 | 10.30829 | 33705 ft | 415 kts | 54° |
| 2026-04-23 19:00 | 45.76142 | 10.34203 | 34001 ft | 413 kts | 54° |
| 2026-04-23 19:01 | 45.77801 | 10.37565 | 34203 ft | 413 kts | 54° |
| 2026-04-23 19:01 | 45.81069 | 10.44361 | 34234 ft | 413 kts | 57° |
| 2026-04-23 19:02 | 45.83595 | 10.50174 | 34214 ft | 413 kts | 58° |
| 2026-04-23 19:02 | 45.87126 | 10.58356 | 34217 ft | 413 kts | 58° |
| 2026-04-23 19:03 | 45.90102 | 10.65302 | 34216 ft | 408 kts | 58° |
| 2026-04-23 19:03 | 45.93081 | 10.72238 | 34257 ft | 408 kts | 58° |
| 2026-04-23 19:04 | 45.96041 | 10.79174 | 34243 ft | 407 kts | 58° |
| 2026-04-23 19:04 | 45.99006 | 10.86122 | 34245 ft | 408 kts | 58° |
| 2026-04-23 19:05 | 46.01967 | 10.93082 | 34238 ft | 408 kts | 58° |
| 2026-04-23 19:05 | 46.04914 | 11.00066 | 34228 ft | 407 kts | 58° |
| 2026-04-23 19:06 | 46.07866 | 11.07035 | 34232 ft | 407 kts | 59° |
| 2026-04-23 19:06 | 46.10807 | 11.13994 | 34225 ft | 406 kts | 59° |
| 2026-04-23 19:07 | 46.13722 | 11.20921 | 34246 ft | 407 kts | 58° |
| 2026-04-23 19:07 | 46.16648 | 11.27907 | 34226 ft | 406 kts | 58° |
| 2026-04-23 19:08 | 46.19572 | 11.34912 | 34208 ft | 407 kts | 59° |
| 2026-04-23 19:08 | 46.22490 | 11.41914 | 34213 ft | 406 kts | 58° |
| 2026-04-23 19:09 | 46.25408 | 11.48915 | 34194 ft | 407 kts | 58° |
| 2026-04-23 19:09 | 46.28304 | 11.55872 | 34196 ft | 406 kts | 58° |
| 2026-04-23 19:10 | 46.31214 | 11.62875 | 34182 ft | 406 kts | 59° |
| 2026-04-23 19:10 | 46.34115 | 11.69897 | 34176 ft | 406 kts | 59° |
| 2026-04-23 19:11 | 46.37008 | 11.76929 | 34152 ft | 405 kts | 59° |
| 2026-04-23 19:11 | 46.39886 | 11.83918 | 34152 ft | 402 kts | 59° |
| 2026-04-23 19:12 | 46.42265 | 11.89724 | 34164 ft | 403 kts | 59° |
| 2026-04-23 19:12 | 46.45586 | 11.97835 | 34168 ft | 403 kts | 59° |
| 2026-04-23 19:13 | 46.48444 | 12.04825 | 34153 ft | 402 kts | 59° |
| 2026-04-23 19:13 | 46.51292 | 12.11835 | 34160 ft | 403 kts | 60° |
| 2026-04-23 19:14 | 46.54140 | 12.18847 | 34223 ft | 403 kts | 60° |
| 2026-04-23 19:14 | 46.56975 | 12.25855 | 34235 ft | 402 kts | 60° |
| 2026-04-23 19:15 | 46.59824 | 12.32892 | 34242 ft | 403 kts | 60° |
| 2026-04-23 19:15 | 46.62642 | 12.39892 | 34231 ft | 402 kts | 60° |
| 2026-04-23 19:16 | 46.65466 | 12.46941 | 34226 ft | 402 kts | 60° |
| 2026-04-23 19:16 | 46.68284 | 12.53985 | 34218 ft | 403 kts | 60° |
| 2026-04-23 19:17 | 46.72900 | 12.64209 | 34191 ft | 402 kts | 54° |
| 2026-04-23 19:17 | 46.76280 | 12.70698 | 34198 ft | 402 kts | 54° |
| 2026-04-23 19:18 | 46.79662 | 12.77213 | 34183 ft | 403 kts | 54° |
| 2026-04-23 19:18 | 46.83016 | 12.83709 | 34188 ft | 403 kts | 54° |
| 2026-04-23 19:19 | 46.88061 | 12.93499 | 34189 ft | 402 kts | 54° |
| 2026-04-23 19:20 | 46.93085 | 13.03289 | 34191 ft | 401 kts | 54° |
| 2026-04-23 19:20 | 46.96420 | 13.09827 | 34182 ft | 400 kts | 54° |
| 2026-04-23 19:21 | 47.01417 | 13.19641 | 34205 ft | 400 kts | 54° |
| 2026-04-23 19:22 | 47.04754 | 13.26178 | 34225 ft | 400 kts | 54° |
| 2026-04-23 19:22 | 47.09725 | 13.35982 | 34219 ft | 399 kts | 54° |
| 2026-04-23 19:23 | 47.13031 | 13.42543 | 34245 ft | 400 kts | 54° |
| 2026-04-23 19:24 | 47.17997 | 13.52388 | 34238 ft | 400 kts | 54° |
| 2026-04-23 19:24 | 47.22932 | 13.62199 | 34235 ft | 399 kts | 54° |
| 2026-04-23 19:25 | 47.29517 | 13.75352 | 34251 ft | 399 kts | 54° |
| 2026-04-23 19:26 | 47.34437 | 13.85259 | 34249 ft | 399 kts | 54° |
| 2026-04-23 19:27 | 47.42613 | 14.01743 | 34250 ft | 399 kts | 54° |
| 2026-04-23 19:28 | 47.49120 | 14.15069 | 34241 ft | 400 kts | 54° |
| 2026-04-23 19:29 | 47.53501 | 14.23906 | 34247 ft | 399 kts | 54° |
| 2026-04-23 19:30 | 47.58426 | 14.33911 | 34237 ft | 401 kts | 54° |
| 2026-04-23 19:31 | 47.63287 | 14.43892 | 34236 ft | 398 kts | 54° |
| 2026-04-23 19:31 | 47.66530 | 14.50568 | 34246 ft | 399 kts | 54° |
| 2026-04-23 19:32 | 47.69767 | 14.57263 | 34221 ft | 398 kts | 54° |
| 2026-04-23 19:32 | 47.73007 | 14.63951 | 34194 ft | 400 kts | 53° |
| 2026-04-23 19:33 | 47.76251 | 14.70668 | 34209 ft | 400 kts | 54° |
| 2026-04-23 19:33 | 47.81107 | 14.80761 | 34206 ft | 400 kts | 54° |
| 2026-04-23 19:34 | 47.84348 | 14.87506 | 34197 ft | 400 kts | 54° |
| 2026-04-23 19:35 | 47.89175 | 14.97650 | 34207 ft | 400 kts | 54° |
| 2026-04-23 19:35 | 47.92402 | 15.04422 | 34195 ft | 400 kts | 54° |
| 2026-04-23 19:36 | 47.95615 | 15.11193 | 34187 ft | 400 kts | 54° |
| 2026-04-23 19:36 | 47.98825 | 15.17984 | 34182 ft | 400 kts | 54° |
| 2026-04-23 19:37 | 48.02017 | 15.24735 | 34176 ft | 400 kts | 54° |
| 2026-04-23 19:37 | 48.05228 | 15.31546 | 34177 ft | 401 kts | 54° |
| 2026-04-23 19:38 | 48.08448 | 15.38370 | 34171 ft | 403 kts | 53° |
| 2026-04-23 19:38 | 48.11680 | 15.45221 | 34174 ft | 403 kts | 54° |
| 2026-04-23 19:39 | 48.14906 | 15.52084 | 34166 ft | 403 kts | 54° |
| 2026-04-23 19:39 | 48.18116 | 15.58952 | 34169 ft | 402 kts | 54° |
| 2026-04-23 19:40 | 48.21322 | 15.65834 | 34152 ft | 402 kts | 53° |
| 2026-04-23 19:40 | 48.24518 | 15.72704 | 34157 ft | 402 kts | 53° |
| 2026-04-23 19:41 | 48.27721 | 15.79607 | 34142 ft | 403 kts | 53° |
| 2026-04-23 19:41 | 48.30913 | 15.86511 | 34142 ft | 403 kts | 53° |
| 2026-04-23 19:42 | 48.34085 | 15.93393 | 34143 ft | 403 kts | 53° |
| 2026-04-23 19:42 | 48.37283 | 16.00330 | 34147 ft | 403 kts | 53° |
| 2026-04-23 19:43 | 48.40468 | 16.07277 | 34131 ft | 403 kts | 53° |
| 2026-04-23 19:43 | 48.43650 | 16.14224 | 34129 ft | 403 kts | 53° |
| 2026-04-23 19:44 | 48.46827 | 16.21180 | 34128 ft | 402 kts | 53° |
| 2026-04-23 19:44 | 48.49989 | 16.28139 | 34124 ft | 402 kts | 53° |
| 2026-04-23 19:45 | 48.53150 | 16.35101 | 34120 ft | 402 kts | 53° |
| 2026-04-23 19:45 | 48.56309 | 16.42070 | 34121 ft | 402 kts | 53° |
| 2026-04-23 19:46 | 48.59462 | 16.49047 | 34121 ft | 401 kts | 52° |
| 2026-04-23 19:46 | 48.62594 | 16.55982 | 34114 ft | 401 kts | 52° |
| 2026-04-23 19:47 | 48.65728 | 16.62969 | 34114 ft | 402 kts | 53° |
| 2026-04-23 19:47 | 48.68866 | 16.69960 | 34115 ft | 401 kts | 53° |
| 2026-04-23 19:48 | 48.72000 | 16.76958 | 34111 ft | 401 kts | 53° |
| 2026-04-23 19:48 | 48.75360 | 16.83707 | 34109 ft | 400 kts | 49° |
| 2026-04-23 19:49 | 48.78803 | 16.90314 | 34100 ft | 399 kts | 49° |
| 2026-04-23 19:49 | 48.82219 | 16.96895 | 34100 ft | 399 kts | 49° |
| 2026-04-23 19:50 | 48.85673 | 17.03575 | 34106 ft | 399 kts | 49° |
| 2026-04-23 19:50 | 48.89097 | 17.10211 | 34095 ft | 399 kts | 49° |
| 2026-04-23 19:51 | 48.92518 | 17.16861 | 34099 ft | 399 kts | 48° |
| 2026-04-23 19:51 | 48.95902 | 17.23450 | 34097 ft | 396 kts | 48° |
| 2026-04-23 19:52 | 48.99268 | 17.30023 | 34092 ft | 389 kts | 48° |
| 2026-04-23 19:52 | 49.02594 | 17.36543 | 34092 ft | 394 kts | 48° |
| 2026-04-23 19:53 | 49.05972 | 17.43163 | 34095 ft | 396 kts | 48° |
| 2026-04-23 19:53 | 49.09353 | 17.49804 | 34096 ft | 396 kts | 48° |
| 2026-04-23 19:54 | 49.12730 | 17.56467 | 34098 ft | 397 kts | 48° |
| 2026-04-23 19:54 | 49.16107 | 17.63148 | 34090 ft | 397 kts | 48° |
| 2026-04-23 19:55 | 49.19474 | 17.69825 | 34088 ft | 396 kts | 48° |
| 2026-04-23 19:55 | 49.22823 | 17.76474 | 34091 ft | 392 kts | 48° |
| 2026-04-23 19:56 | 49.26122 | 17.83055 | 34091 ft | 391 kts | 48° |
| 2026-04-23 19:56 | 49.29452 | 17.89704 | 34096 ft | 398 kts | 48° |
| 2026-04-23 19:56 | 49.31130 | 17.93056 | 33802 ft | 395 kts | 48° |
| 2026-04-23 19:57 | 49.32809 | 17.96411 | 33511 ft | 398 kts | 48° |
| 2026-04-23 19:57 | 49.34496 | 17.99791 | 33233 ft | 400 kts | 48° |
| 2026-04-23 19:57 | 49.36184 | 18.03185 | 32971 ft | 401 kts | 48° |
| 2026-04-23 19:57 | 49.37879 | 18.06596 | 32708 ft | 402 kts | 48° |
| 2026-04-23 19:58 | 49.39580 | 18.10012 | 32449 ft | 403 kts | 48° |
| 2026-04-23 19:58 | 49.41282 | 18.13439 | 32218 ft | 404 kts | 48° |
| 2026-04-23 19:58 | 49.42990 | 18.16884 | 31973 ft | 405 kts | 48° |
| 2026-04-23 19:58 | 49.44701 | 18.20339 | 31720 ft | 407 kts | 47° |
| 2026-04-23 19:59 | 49.46419 | 18.23811 | 31464 ft | 408 kts | 48° |
| 2026-04-23 19:59 | 49.48140 | 18.27299 | 31214 ft | 409 kts | 48° |
| 2026-04-23 19:59 | 49.49863 | 18.30793 | 30971 ft | 411 kts | 48° |
| 2026-04-23 19:59 | 49.51584 | 18.34295 | 30731 ft | 412 kts | 48° |
| 2026-04-23 20:00 | 49.53310 | 18.37815 | 30488 ft | 413 kts | 48° |
| 2026-04-23 20:00 | 49.55045 | 18.41355 | 30191 ft | 413 kts | 48° |
| 2026-04-23 20:00 | 49.56779 | 18.44886 | 29704 ft | 414 kts | 48° |
| 2026-04-23 20:00 | 49.58514 | 18.48433 | 29167 ft | 417 kts | 48° |
| 2026-04-23 20:01 | 49.60249 | 18.51975 | 28632 ft | 419 kts | 48° |
| 2026-04-23 20:01 | 49.62032 | 18.55621 | 28087 ft | 422 kts | 48° |
| 2026-04-23 20:01 | 49.63776 | 18.59200 | 27477 ft | 422 kts | 49° |
| 2026-04-23 20:01 | 49.65540 | 18.62836 | 26337 ft | 425 kts | 49° |
| 2026-04-23 20:02 | 49.67330 | 18.66512 | 25050 ft | 432 kts | 49° |
| 2026-04-23 20:02 | 49.69090 | 18.70314 | 23868 ft | 439 kts | 53° |
| 2026-04-23 20:02 | 49.70439 | 18.74590 | 22686 ft | 448 kts | 64° |
| 2026-04-23 20:02 | 49.71568 | 18.79146 | 22174 ft | 446 kts | 64° |
| 2026-04-23 20:03 | 49.72645 | 18.83572 | 21846 ft | 446 kts | 65° |
| 2026-04-23 20:03 | 49.73740 | 18.88047 | 21496 ft | 444 kts | 64° |
| 2026-04-23 20:03 | 49.74825 | 18.92468 | 21023 ft | 435 kts | 64° |
| 2026-04-23 20:03 | 49.75888 | 18.96804 | 20453 ft | 427 kts | 64° |
| 2026-04-23 20:04 | 49.76928 | 19.01067 | 19910 ft | 420 kts | 64° |
| 2026-04-23 20:04 | 49.77949 | 19.05251 | 19337 ft | 411 kts | 64° |
| 2026-04-23 20:04 | 49.78946 | 19.09354 | 18754 ft | 403 kts | 64° |
| 2026-04-23 20:04 | 49.79929 | 19.13394 | 18098 ft | 398 kts | 64° |
| 2026-04-23 20:05 | 49.80582 | 19.16064 | 17641 ft | 405 kts | 64° |
| 2026-04-23 20:05 | 49.81907 | 19.21508 | 16829 ft | 402 kts | 64° |
| 2026-04-23 20:05 | 49.82887 | 19.25570 | 16321 ft | 410 kts | 65° |
| 2026-04-23 20:05 | 49.83908 | 19.29776 | 15946 ft | 419 kts | 65° |
| 2026-04-23 20:06 | 49.84919 | 19.33973 | 15435 ft | 414 kts | 65° |
| 2026-04-23 20:06 | 49.85917 | 19.38135 | 14925 ft | 408 kts | 65° |
| 2026-04-23 20:06 | 49.86900 | 19.42230 | 14497 ft | 402 kts | 65° |
| 2026-04-23 20:06 | 49.87865 | 19.46264 | 14043 ft | 395 kts | 65° |
| 2026-04-23 20:07 | 49.88798 | 19.50171 | 13582 ft | 389 kts | 65° |
| 2026-04-23 20:07 | 49.89734 | 19.54086 | 13016 ft | 386 kts | 65° |
| 2026-04-23 20:07 | 49.90665 | 19.57981 | 12485 ft | 383 kts | 65° |
| 2026-04-23 20:07 | 49.91579 | 19.61824 | 12007 ft | 375 kts | 65° |
| 2026-04-23 20:08 | 49.92462 | 19.65552 | 11705 ft | 361 kts | 65° |
| 2026-04-23 20:08 | 49.93311 | 19.69138 | 11483 ft | 346 kts | 65° |
| 2026-04-23 20:08 | 49.94124 | 19.72584 | 11292 ft | 332 kts | 65° |
| 2026-04-23 20:08 | 49.94899 | 19.75873 | 11101 ft | 318 kts | 64° |
| 2026-04-23 20:09 | 49.95644 | 19.79035 | 10932 ft | 305 kts | 64° |
| 2026-04-23 20:09 | 49.96333 | 19.81956 | 10777 ft | 292 kts | 64° |
| 2026-04-23 20:09 | 49.97032 | 19.84915 | 10481 ft | 285 kts | 64° |
| 2026-04-23 20:09 | 49.97713 | 19.87805 | 10043 ft | 284 kts | 64° |
| 2026-04-23 20:10 | 49.98163 | 19.89710 | 9724 ft | 284 kts | 64° |
| 2026-04-23 20:10 | 49.99061 | 19.93547 | 9103 ft | 281 kts | 64° |
| 2026-04-23 20:10 | 49.99505 | 19.95441 | 8790 ft | 281 kts | 64° |
| 2026-04-23 20:10 | 50.00388 | 19.99212 | 8194 ft | 280 kts | 64° |
| 2026-04-23 20:11 | 50.01050 | 20.02039 | 7800 ft | 277 kts | 65° |
| 2026-04-23 20:11 | 50.01480 | 20.03928 | 7626 ft | 271 kts | 65° |
| 2026-04-23 20:11 | 50.02303 | 20.07520 | 7273 ft | 261 kts | 63° |
| 2026-04-23 20:11 | 50.03216 | 20.09868 | 6869 ft | 249 kts | 39° |
| 2026-04-23 20:12 | 50.04163 | 20.10882 | 6593 ft | 241 kts | 19° |
| 2026-04-23 20:12 | 50.05770 | 20.11310 | 6169 ft | 234 kts | 353° |
| 2026-04-23 20:12 | 50.07349 | 20.10850 | 5768 ft | 232 kts | 346° |
| 2026-04-23 20:12 | 50.08914 | 20.10261 | 5354 ft | 230 kts | 345° |
| 2026-04-23 20:13 | 50.10344 | 20.09304 | 5107 ft | 220 kts | 323° |
| 2026-04-23 20:13 | 50.11275 | 20.07519 | 4858 ft | 211 kts | 297° |
| 2026-04-23 20:13 | 50.11525 | 20.05309 | 4573 ft | 205 kts | 273° |
| 2026-04-23 20:13 | 50.11314 | 20.03232 | 4418 ft | 184 kts | 264° |
| 2026-04-23 20:14 | 50.11008 | 20.01357 | 4036 ft | 175 kts | 263° |
| 2026-04-23 20:14 | 50.10723 | 19.99597 | 3742 ft | 155 kts | 264° |
| 2026-04-23 20:14 | 50.10498 | 19.98070 | 3370 ft | 138 kts | 266° |
| 2026-04-23 20:14 | 50.10295 | 19.96629 | 2994 ft | 136 kts | 266° |
| 2026-04-23 20:15 | 50.10094 | 19.95183 | 2790 ft | 137 kts | 266° |
| 2026-04-23 20:15 | 50.09893 | 19.93736 | 2606 ft | 136 kts | 266° |
| 2026-04-23 20:15 | 50.09693 | 19.92299 | 2422 ft | 135 kts | 266° |
| 2026-04-23 20:15 | 50.09497 | 19.90884 | 2242 ft | 133 kts | 265° |
| 2026-04-23 20:16 | 50.09303 | 19.89488 | 2058 ft | 134 kts | 263° |
| 2026-04-23 20:16 | 50.09104 | 19.88059 | 1872 ft | 132 kts | 260° |
| 2026-04-23 20:16 | 50.08912 | 19.86675 | 1696 ft | 130 kts | 259° |
| 2026-04-23 20:16 | 50.08725 | 19.85320 | 1510 ft | 131 kts | 259° |
| 2026-04-23 20:17 | 50.08536 | 19.83964 | 1340 ft | 130 kts | 258° |
| 2026-04-23 20:17 | 50.08340 | 19.82566 | 1149 ft | 128 kts | 258° |
| 2026-04-23 20:17 | 50.08149 | 19.81217 | 995 ft | 130 kts | 258° |
| 2026-04-23 20:17 | 50.07962 | 19.79859 | 830 ft | 128 kts | 258° |
| 2026-04-23 20:18 | 50.07788 | 19.78585 | 806 ft | 98 kts | 259° |
| 2026-04-23 20:18 | 50.07688 | 19.77868 | 803 ft | 39 kts | 258° |
| 2026-04-23 20:18 | 50.07649 | 19.77584 | 805 ft | 27 kts | 258° |
| 2026-04-23 20:18 | 50.07609 | 19.77290 | 806 ft | 16 kts | 258° |
| 2026-04-23 20:19 | 50.07586 | 19.77128 | 808 ft | 16 kts | 258° |
| 2026-04-23 20:19 | 50.07562 | 19.76950 | 808 ft | 18 kts | 258° |
| 2026-04-23 20:19 | 50.07551 | 19.76883 | 808 ft | 0 kts | 249° |
| 2026-04-23 20:19 | 50.07543 | 19.76867 | 808 ft | 5 kts | 228° |
| 2026-04-23 20:20 | 50.07466 | 19.76850 | 806 ft | 13 kts | 170° |
| 2026-04-23 20:20 | 50.07371 | 19.76882 | 805 ft | 14 kts | 166° |
| 2026-04-23 20:20 | 50.07309 | 19.76986 | 805 ft | 16 kts | 84° |
| 2026-04-23 20:20 | 50.07337 | 19.77162 | 805 ft | 17 kts | 76° |
| 2026-04-23 20:21 | 50.07365 | 19.77354 | 805 ft | 19 kts | 77° |
| 2026-04-23 20:21 | 50.07391 | 19.77561 | 805 ft | 20 kts | 79° |
| 2026-04-23 20:21 | 50.07423 | 19.77782 | 805 ft | 21 kts | 79° |
| 2026-04-23 20:21 | 50.07449 | 19.78016 | 805 ft | 23 kts | 79° |
| 2026-04-23 20:22 | 50.07486 | 19.78261 | 805 ft | 24 kts | 83° |
| 2026-04-23 20:22 | 50.07525 | 19.78519 | 805 ft | 25 kts | 77° |
| 2026-04-23 20:22 | 50.07565 | 19.78790 | 805 ft | 26 kts | 81° |
| 2026-04-23 20:22 | 50.07604 | 19.79076 | 805 ft | 28 kts | 79° |
| 2026-04-23 20:23 | 50.07644 | 19.79377 | 805 ft | 29 kts | 79° |
| 2026-04-23 20:23 | 50.07677 | 19.79612 | 805 ft | 9 kts | 82° |
| 2026-04-23 20:23 | 50.07648 | 19.79694 | 805 ft | 11 kts | 176° |
| 2026-04-23 20:23 | 50.07569 | 19.79726 | 805 ft | 13 kts | 169° |
| 2026-04-23 20:24 | 50.07476 | 19.79756 | 805 ft | 14 kts | 168° |
| 2026-04-23 20:24 | 50.07380 | 19.79808 | 805 ft | 16 kts | 123° |
| 2026-04-23 20:24 | 50.07391 | 19.79985 | 805 ft | 17 kts | 78° |
| 2026-04-23 20:24 | 50.07420 | 19.80176 | 805 ft | 19 kts | 77° |
| 2026-04-23 20:25 | 50.07440 | 19.80301 | 805 ft | 5 kts | 79° |
| 2026-04-23 20:25 | 50.07453 | 19.80359 | 805 ft | 7 kts | 53° |
| 2026-04-23 20:25 | 50.07460 | 19.80436 | 805 ft | 9 kts | 100° |
| 2026-04-23 20:25 | 50.07452 | 19.80475 | 805 ft | 0 kts | 110° |
| 2026-04-23 20:28 | 50.07452 | 19.80474 | 805 ft | 0 kts | 110° |